CYKP

Ogoki Post

Ogoki Post, Ontario, Canada
METAR CYKP 170357Z AUTO 30010G18KT 9SM -SN SCT022 BKN026 BKN042 OVC110 M04/M05 A2976 RMK ICG SLP089
Observed Flight Rules
Oct-17 @ 03:57 UTC (10 minutes ago) Marginal Visual Flight Rules
Wind Visibility Clouds Conditions
300° at 10 knots
 Gusting to 18 knots
9 miles
  • Scattered at 2,200' AGL
  • Broken at 2,600' AGL
  • Broken at 4,200' AGL
  • Overcast at 11,000' AGL
  • Light Snow
Temperatures Readings
Current -4°C / 25°F
Dewpoint -5°C / 23°F
Humidity 93%
Altimeter 29.76" Hg
Pressure 1008.9 hPa
Elevation 179
METAR CYKP 170357Z AUTO 30010G18KT 9SM -SN SCT022 BKN026 BKN042 OVC110 M04/M05 A2976 RMK ICG SLP089
Observed Flight Rules
Oct-17 @ 03:57 UTC
(10 minutes ago)
MVFR
Wind Visibility
300° at 10 knots
 Gusting to 18 knots
9 miles
Clouds
  • Scattered at 2,200' AGL
  • Broken at 2,600' AGL
  • Broken at 4,200' AGL
  • Overcast at 11,000' AGL
Conditions
  • Light Snow
Temperature Dewpoint
-4°C / 25°F -5°C / 23°F
Humidity Altimeter Pressure
93% 29.76" Hg 1008.9 hPa